Time;durP1;ratioP1;P1;durP2;ratioP2;P2;SDS_P1;SDS_P2;PMS_P1;PMS_P2;Temp;Humidity;BMP_temperature;BMP_pressure;BME280_temperature;BME280_humidity;BME280_pressure;Samples;Min_cycle;Max_cycle;Signal;HPM_P1;HPM_P2
2022/08/18 00:02:25;;;;;;;0.20;0.10;;;;;;;;;;6188324;23;20028;-83
2022/08/18 00:04:52;;;;;;;0.20;0.10;;;;;;;;;;6188437;23;20012;-82
2022/08/18 00:07:20;;;;;;;0.20;0.10;;;;;;;;;;6182031;23;20321;-82
2022/08/18 00:09:49;;;;;;;0.20;0.10;;;;;;;;;;6185620;23;20035;-82
2022/08/18 00:12:17;;;;;;;0.20;0.10;;;;;;;;;;6177913;23;20016;-83
2022/08/18 00:14:44;;;;;;;0.20;0.00;;;;;;;;;;6177122;23;20017;-82
2022/08/18 00:17:10;;;;;;;0.20;0.10;;;;;;;;;;6174398;23;20019;-83
2022/08/18 00:19:36;;;;;;;0.20;0.10;;;;;;;;;;6175007;23;20020;-82
2022/08/18 00:22:02;;;;;;;0.20;0.10;;;;;;;;;;6176150;23;20047;-81
2022/08/18 00:24:29;;;;;;;0.20;0.10;;;;;;;;;;6202496;23;20024;-82
2022/08/18 00:26:56;;;;;;;0.20;0.10;;;;;;;;;;6147783;23;20016;-83
2022/08/18 00:29:23;;;;;;;0.20;0.10;;;;;;;;;;6203194;23;20558;-82
2022/08/18 00:31:49;;;;;;;0.20;0.10;;;;;;;;;;6178628;23;20936;-83
2022/08/18 00:34:15;;;;;;;0.20;0.10;;;;;;;;;;6179226;23;20364;-83
2022/08/18 00:36:42;;;;;;;0.20;0.10;;;;;;;;;;6180524;23;20043;-82
2022/08/18 00:39:08;;;;;;;0.20;0.10;;;;;;;;;;6210542;23;20016;-83
2022/08/18 00:41:34;;;;;;;0.20;0.10;;;;;;;;;;6189334;23;20055;-83
2022/08/18 00:44:00;;;;;;;0.20;0.20;;;;;;;;;;6187759;23;20013;-83
2022/08/18 00:46:35;;;;;;;0.20;0.10;;;;;;;;;;6186258;23;20080;-82
2022/08/18 00:49:01;;;;;;;0.20;0.10;;;;;;;;;;6185642;23;20013;-83
2022/08/18 00:51:31;;;;;;;0.20;0.10;;;;;;;;;;6188829;23;20016;-83
2022/08/18 00:54:18;;;;;;;0.20;0.10;;;;;;;;;;6212790;23;20016;-83
2022/08/18 00:56:46;;;;;;;0.20;0.10;;;;;;;;;;6160834;23;20031;-83
2022/08/18 00:59:15;;;;;;;0.20;0.10;;;;;;;;;;6187417;23;20043;-82
2022/08/18 01:01:42;;;;;;;0.20;0.10;;;;;;;;;;6159658;23;20040;-83
2022/08/18 01:04:29;;;;;;;0.20;0.10;;;;;;;;;;6186871;23;20019;-82
2022/08/18 01:07:00;;;;;;;0.20;0.10;;;;;;;;;;6185780;23;20957;-83
2022/08/18 01:09:26;;;;;;;0.20;0.10;;;;;;;;;;6181030;23;20055;-83
2022/08/18 01:11:52;;;;;;;0.20;0.10;;;;;;;;;;6181769;23;20027;-82
2022/08/18 01:14:19;;;;;;;0.20;0.10;;;;;;;;;;6178177;23;20020;-82
2022/08/18 01:22:21;;;;;;;0.20;0.10;;;;;;;;;;6175067;23;20029;-82
2022/08/18 01:27:45;;;;;;;0.20;0.10;;;;;;;;;;6160529;23;20027;-83
2022/08/18 01:30:14;;;;;;;0.20;0.10;;;;;;;;;;6175266;23;20071;-83
2022/08/18 01:32:40;;;;;;;0.20;0.10;;;;;;;;;;6179209;23;20021;-81
2022/08/18 01:35:07;;;;;;;0.20;0.10;;;;;;;;;;6178092;23;20029;-83
2022/08/18 01:37:34;;;;;;;0.20;0.10;;;;;;;;;;6176569;23;20020;-82
2022/08/18 01:40:04;;;;;;;0.20;0.10;;;;;;;;;;6179265;23;20020;-83
2022/08/18 01:42:30;;;;;;;0.20;0.10;;;;;;;;;;6162676;23;20020;-82
2022/08/18 01:44:56;;;;;;;0.20;0.10;;;;;;;;;;6191852;23;20051;-82
2022/08/18 01:47:23;;;;;;;0.20;0.10;;;;;;;;;;6193791;23;20084;-82
2022/08/18 01:49:49;;;;;;;0.20;0.10;;;;;;;;;;6192717;23;20230;-83
2022/08/18 01:52:19;;;;;;;0.20;0.10;;;;;;;;;;6190228;23;20066;-83
2022/08/18 01:54:46;;;;;;;0.20;0.10;;;;;;;;;;6163732;23;20036;-83
2022/08/18 01:57:13;;;;;;;0.20;0.10;;;;;;;;;;6187769;23;20012;-83
2022/08/18 01:59:40;;;;;;;0.20;0.10;;;;;;;;;;6162047;23;20020;-83
2022/08/18 02:02:06;;;;;;;0.20;0.10;;;;;;;;;;6186250;23;20016;-82
2022/08/18 02:04:33;;;;;;;0.20;0.20;;;;;;;;;;6193229;23;20016;-82
2022/08/18 02:07:01;;;;;;;0.20;0.10;;;;;;;;;;6216668;23;20016;-83
2022/08/18 02:09:28;;;;;;;0.20;0.10;;;;;;;;;;6217100;23;20036;-82
2022/08/18 02:11:55;;;;;;;0.20;0.10;;;;;;;;;;6217993;23;20051;-82
2022/08/18 02:14:21;;;;;;;0.20;0.10;;;;;;;;;;6161018;23;20361;-83
2022/08/18 02:16:47;;;;;;;0.20;0.10;;;;;;;;;;6185456;23;20028;-83
2022/08/18 02:19:13;;;;;;;0.20;0.17;;;;;;;;;;6186278;23;20047;-82
2022/08/18 02:21:39;;;;;;;0.20;0.10;;;;;;;;;;6186246;23;20483;-83
2022/08/18 02:24:05;;;;;;;0.20;0.10;;;;;;;;;;6189405;23;20013;-83
2022/08/18 02:26:31;;;;;;;0.20;0.10;;;;;;;;;;6187516;23;20016;-83
2022/08/18 02:28:57;;;;;;;0.20;0.10;;;;;;;;;;6185939;23;20016;-83
2022/08/18 02:31:24;;;;;;;0.20;0.10;;;;;;;;;;6188299;23;20020;-82
2022/08/18 02:33:51;;;;;;;0.20;0.10;;;;;;;;;;6213310;23;20040;-82
2022/08/18 02:36:17;;;;;;;0.20;0.10;;;;;;;;;;6213989;23;20013;-82
2022/08/18 02:38:43;;;;;;;0.20;0.10;;;;;;;;;;6185634;23;20066;-82
2022/08/18 02:41:10;;;;;;;0.20;0.10;;;;;;;;;;6213247;23;20243;-83
2022/08/18 02:43:37;;;;;;;0.20;0.10;;;;;;;;;;6186279;23;20025;-83
2022/08/18 02:46:04;;;;;;;0.20;0.10;;;;;;;;;;6190735;23;20028;-83
2022/08/18 02:51:01;;;;;;;0.20;0.10;;;;;;;;;;6214133;23;20072;-83
2022/08/18 02:53:27;;;;;;;0.20;0.10;;;;;;;;;;6209713;23;20035;-82
2022/08/18 02:55:54;;;;;;;0.20;0.10;;;;;;;;;;6162127;23;20056;-82
2022/08/18 02:58:20;;;;;;;0.20;0.10;;;;;;;;;;6188445;23;20073;-83
2022/08/18 03:00:46;;;;;;;0.55;0.55;;;;;;;;;;6213897;23;20363;-82
2022/08/18 03:03:12;;;;;;;0.20;0.10;;;;;;;;;;6184978;23;20023;-82
2022/08/18 03:05:39;;;;;;;0.20;0.10;;;;;;;;;;6189178;23;20017;-82
2022/08/18 03:08:05;;;;;;;0.20;0.13;;;;;;;;;;6217568;23;20009;-82
2022/08/18 03:10:31;;;;;;;0.20;0.10;;;;;;;;;;6192850;23;20016;-82
2022/08/18 03:12:57;;;;;;;0.20;0.10;;;;;;;;;;6217289;23;20021;-83
2022/08/18 03:15:23;;;;;;;0.20;0.10;;;;;;;;;;6192069;23;20046;-82
2022/08/18 03:17:50;;;;;;;0.20;0.10;;;;;;;;;;6187606;23;20023;-83
2022/08/18 03:20:16;;;;;;;0.20;0.10;;;;;;;;;;6213460;22;20070;-83
2022/08/18 03:22:42;;;;;;;0.20;0.10;;;;;;;;;;6209648;23;20017;-83
2022/08/18 03:25:08;;;;;;;0.20;0.10;;;;;;;;;;6183989;23;20019;-82
2022/08/18 03:27:35;;;;;;;0.20;0.10;;;;;;;;;;6187745;23;20050;-82
2022/08/18 03:30:03;;;;;;;0.20;0.10;;;;;;;;;;6214877;23;20017;-83
2022/08/18 03:32:29;;;;;;;0.20;0.10;;;;;;;;;;6217348;23;20017;-83
2022/08/18 03:34:55;;;;;;;0.20;0.10;;;;;;;;;;6191738;23;20522;-82
2022/08/18 03:37:21;;;;;;;0.20;0.10;;;;;;;;;;6214513;23;20040;-82
2022/08/18 03:39:50;;;;;;;0.40;0.40;;;;;;;;;;6159488;23;20017;-82
2022/08/18 03:42:16;;;;;;;0.20;0.10;;;;;;;;;;6203695;23;20053;-83
2022/08/18 03:44:43;;;;;;;0.20;0.10;;;;;;;;;;6155962;23;20016;-82
2022/08/18 03:47:09;;;;;;;0.20;0.10;;;;;;;;;;6205763;23;20023;-83
2022/08/18 03:49:36;;;;;;;0.20;0.10;;;;;;;;;;6175939;23;20024;-84
2022/08/18 03:52:04;;;;;;;0.20;0.10;;;;;;;;;;6154815;23;20020;-83
2022/08/18 03:54:31;;;;;;;0.20;0.10;;;;;;;;;;6150734;23;20020;-82
2022/08/18 03:56:58;;;;;;;0.20;0.10;;;;;;;;;;6204830;23;20578;-82
2022/08/18 03:59:25;;;;;;;0.20;0.10;;;;;;;;;;6202108;22;20027;-83
2022/08/18 04:01:53;;;;;;;0.20;0.10;;;;;;;;;;6148899;23;20023;-84
2022/08/18 04:04:21;;;;;;;0.20;0.10;;;;;;;;;;6201446;23;20020;-83
2022/08/18 04:06:57;;;;;;;0.20;0.10;;;;;;;;;;6182835;23;20070;-83
2022/08/18 04:09:24;;;;;;;0.20;0.10;;;;;;;;;;6209836;23;20353;-83
2022/08/18 04:11:50;;;;;;;0.20;0.10;;;;;;;;;;6179426;23;20028;-83
2022/08/18 04:14:18;;;;;;;0.20;0.10;;;;;;;;;;6178985;23;20153;-83
2022/08/18 04:16:45;;;;;;;0.20;0.10;;;;;;;;;;6181775;23;20013;-83
2022/08/18 04:19:12;;;;;;;0.20;0.10;;;;;;;;;;6177802;23;20134;-83
2022/08/18 04:21:40;;;;;;;0.20;0.10;;;;;;;;;;6203416;23;20019;-83
2022/08/18 04:24:07;;;;;;;0.20;0.10;;;;;;;;;;6202145;23;20022;-83
2022/08/18 04:26:34;;;;;;;0.20;0.10;;;;;;;;;;6178072;23;20051;-83
2022/08/18 04:29:01;;;;;;;0.20;0.20;;;;;;;;;;6179931;23;20013;-84
2022/08/18 04:31:28;;;;;;;0.20;0.10;;;;;;;;;;6179553;23;20020;-83
2022/08/18 04:33:55;;;;;;;0.20;0.10;;;;;;;;;;6203348;22;20051;-83
2022/08/18 04:36:21;;;;;;;0.20;0.10;;;;;;;;;;6207664;23;20146;-83
2022/08/18 04:38:48;;;;;;;0.20;0.10;;;;;;;;;;6180483;23;20020;-83
2022/08/18 04:41:14;;;;;;;0.20;0.10;;;;;;;;;;6156127;23;20438;-83
2022/08/18 04:43:41;;;;;;;0.20;0.10;;;;;;;;;;6155323;23;20021;-83
2022/08/18 04:46:07;;;;;;;0.20;0.10;;;;;;;;;;6179898;23;20356;-83
2022/08/18 04:48:35;;;;;;;0.20;0.10;;;;;;;;;;6177434;23;20063;-83
2022/08/18 04:51:07;;;;;;;0.20;0.10;;;;;;;;;;6179415;23;20017;-84
2022/08/18 04:53:45;;;;;;;0.20;0.10;;;;;;;;;;6175709;23;20194;-83
2022/08/18 04:56:25;;;;;;;0.20;0.10;;;;;;;;;;6178164;23;20020;-83
2022/08/18 04:58:55;;;;;;;0.20;0.10;;;;;;;;;;6201821;23;20024;-82
2022/08/18 05:01:23;;;;;;;0.20;0.10;;;;;;;;;;6174946;23;20069;-83
2022/08/18 05:03:49;;;;;;;0.20;0.10;;;;;;;;;;6175287;23;20020;-83
2022/08/18 05:06:16;;;;;;;0.30;0.30;;;;;;;;;;6174557;23;20016;-83
2022/08/18 05:08:42;;;;;;;0.20;0.10;;;;;;;;;;6178250;23;20133;-84
2022/08/18 05:11:09;;;;;;;0.20;0.10;;;;;;;;;;6177550;23;20020;-84
2022/08/18 05:13:35;;;;;;;0.20;0.20;;;;;;;;;;6177769;23;20017;-83
2022/08/18 05:16:05;;;;;;;0.20;0.10;;;;;;;;;;6180066;23;20193;-83
2022/08/18 05:18:32;;;;;;;0.20;0.10;;;;;;;;;;6201268;22;20406;-84
2022/08/18 05:21:00;;;;;;;0.20;0.10;;;;;;;;;;6176750;23;20024;-83
2022/08/18 05:23:28;;;;;;;0.20;0.15;;;;;;;;;;6152466;23;20021;-83
2022/08/18 05:26:02;;;;;;;0.20;0.10;;;;;;;;;;6200868;23;20012;-85
2022/08/18 05:28:29;;;;;;;0.20;0.10;;;;;;;;;;6202157;22;20017;-83
2022/08/18 05:30:56;;;;;;;0.20;0.10;;;;;;;;;;6175439;23;20070;-83
2022/08/18 05:33:23;;;;;;;0.20;0.10;;;;;;;;;;6153003;23;20023;-84
2022/08/18 05:35:51;;;;;;;0.20;0.10;;;;;;;;;;6177950;23;20020;-83
2022/08/18 05:38:23;;;;;;;0.20;0.10;;;;;;;;;;6175890;23;20574;-84
2022/08/18 05:41:05;;;;;;;0.20;0.10;;;;;;;;;;6175975;23;20016;-83
2022/08/18 05:43:32;;;;;;;0.20;0.10;;;;;;;;;;6174037;23;20459;-83
2022/08/18 05:45:59;;;;;;;0.20;0.13;;;;;;;;;;6174798;23;20040;-83
2022/08/18 05:48:25;;;;;;;0.20;0.10;;;;;;;;;;6200228;23;20025;-83
2022/08/18 05:50:52;;;;;;;0.20;0.10;;;;;;;;;;6173915;23;20017;-83
2022/08/18 05:53:18;;;;;;;0.20;0.13;;;;;;;;;;6174924;23;20028;-84
2022/08/18 05:58:40;;;;;;;0.20;0.10;;;;;;;;;;6309015;22;20020;-83
2022/08/18 06:01:11;;;;;;;0.20;0.10;;;;;;;;;;6173974;23;20165;-82
2022/08/18 06:03:48;;;;;;;0.20;0.10;;;;;;;;;;6172882;23;20408;-83
2022/08/18 06:06:18;;;;;;;0.20;0.10;;;;;;;;;;6174292;23;20020;-80
2022/08/18 06:08:48;;;;;;;0.20;0.17;;;;;;;;;;6148140;23;20012;-84
2022/08/18 06:11:14;;;;;;;0.20;0.10;;;;;;;;;;6173150;23;20446;-82
2022/08/18 06:13:42;;;;;;;0.20;0.10;;;;;;;;;;6171483;23;20622;-84
2022/08/18 06:16:13;;;;;;;0.20;0.10;;;;;;;;;;6172657;23;20020;-84
2022/08/18 06:18:48;;;;;;;0.20;0.10;;;;;;;;;;6178104;23;20405;-85
2022/08/18 06:21:28;;;;;;;0.20;0.10;;;;;;;;;;6177736;23;20013;-85
2022/08/18 06:24:00;;;;;;;0.20;0.10;;;;;;;;;;6179681;23;20017;-87
2022/08/18 06:26:33;;;;;;;0.20;0.10;;;;;;;;;;6176291;23;20512;-89
2022/08/18 06:29:09;;;;;;;0.20;0.10;;;;;;;;;;6200008;23;20362;-86
2022/08/18 06:31:44;;;;;;;0.20;0.10;;;;;;;;;;6151669;23;20039;-84
2022/08/18 06:34:11;;;;;;;0.20;0.10;;;;;;;;;;6176929;23;20344;-85
2022/08/18 06:36:49;;;;;;;0.20;0.10;;;;;;;;;;6151954;23;20020;-86
2022/08/18 06:39:15;;;;;;;0.20;0.10;;;;;;;;;;6176384;23;20469;-86
2022/08/18 06:41:41;;;;;;;0.20;0.10;;;;;;;;;;6176626;23;20016;-87
2022/08/18 06:44:13;;;;;;;0.20;0.10;;;;;;;;;;6150797;23;20095;-84
2022/08/18 06:46:42;;;;;;;0.20;0.10;;;;;;;;;;6175834;23;20474;-88
2022/08/18 06:49:10;;;;;;;0.20;0.10;;;;;;;;;;6200072;23;20016;-85
2022/08/18 06:51:36;;;;;;;0.20;0.10;;;;;;;;;;6152427;23;20363;-89
2022/08/18 06:54:02;;;;;;;0.20;0.10;;;;;;;;;;6152754;22;20021;-85
2022/08/18 06:56:35;;;;;;;0.20;0.10;;;;;;;;;;6176366;23;20028;-87
2022/08/18 06:59:31;;;;;;;0.20;0.10;;;;;;;;;;6150843;23;20483;-87
2022/08/18 07:02:00;;;;;;;0.20;0.10;;;;;;;;;;6201366;23;20360;-85
2022/08/18 07:04:36;;;;;;;0.20;0.10;;;;;;;;;;6150924;23;20028;-86
2022/08/18 07:07:16;;;;;;;0.20;0.10;;;;;;;;;;6150978;23;20412;-87
2022/08/18 07:09:42;;;;;;;0.20;0.10;;;;;;;;;;6175656;23;20013;-90
2022/08/18 07:12:09;;;;;;;0.20;0.10;;;;;;;;;;6203869;23;20025;-84
2022/08/18 07:14:43;;;;;;;0.20;0.10;;;;;;;;;;6153792;23;20024;-86
2022/08/18 07:17:10;;;;;;;0.20;0.10;;;;;;;;;;6177483;23;20069;-87
2022/08/18 07:19:37;;;;;;;0.20;0.10;;;;;;;;;;6177802;23;20027;-86
2022/08/18 07:22:08;;;;;;;0.20;0.10;;;;;;;;;;6176081;23;20015;-86
2022/08/18 07:24:38;;;;;;;0.20;0.10;;;;;;;;;;6178373;23;20024;-86
2022/08/18 07:27:04;;;;;;;0.20;0.10;;;;;;;;;;6177181;23;20329;-87
2022/08/18 07:29:33;;;;;;;0.20;0.10;;;;;;;;;;6176560;23;20402;-85
2022/08/18 07:32:02;;;;;;;0.20;0.10;;;;;;;;;;6200801;23;20562;-86
2022/08/18 07:34:44;;;;;;;0.20;0.10;;;;;;;;;;6177936;23;20074;-86
2022/08/18 07:37:16;;;;;;;0.20;0.10;;;;;;;;;;6152589;23;20013;-88
2022/08/18 07:39:42;;;;;;;;;;;;;;;;;;6153754;23;20019;-87
2022/08/18 07:42:16;;;;;;;0.20;0.10;;;;;;;;;;6178098;22;20243;-88
2022/08/18 07:45:06;;;;;;;0.20;0.10;;;;;;;;;;6152794;23;20017;-89
2022/08/18 07:47:49;;;;;;;0.20;0.10;;;;;;;;;;6178139;23;20024;-88
2022/08/18 07:50:16;;;;;;;0.20;0.10;;;;;;;;;;6175996;23;20051;-88
2022/08/18 07:52:47;;;;;;;0.20;0.10;;;;;;;;;;6151241;23;20028;-89
2022/08/18 07:55:43;;;;;;;0.20;0.10;;;;;;;;;;6178506;23;20013;-89
2022/08/18 07:58:32;;;;;;;0.20;0.10;;;;;;;;;;6184988;23;20503;-89
2022/08/18 08:01:21;;;;;;;0.20;0.10;;;;;;;;;;6178330;23;20072;-88
2022/08/18 08:03:54;;;;;;;0.20;0.10;;;;;;;;;;6201900;22;20020;-89
2022/08/18 08:06:29;;;;;;;0.20;0.10;;;;;;;;;;6203501;23;20013;-89
2022/08/18 08:08:57;;;;;;;0.20;0.10;;;;;;;;;;6178274;23;20027;-90
2022/08/18 08:11:27;;;;;;;0.20;0.10;;;;;;;;;;6155026;23;20377;-89
2022/08/18 08:14:08;;;;;;;0.20;0.10;;;;;;;;;;6179266;23;20017;-87
2022/08/18 08:17:16;;;;;;;0.20;0.10;;;;;;;;;;6178572;23;20016;-89
2022/08/18 08:19:58;;;;;;;0.20;0.10;;;;;;;;;;6175338;23;20376;-91
2022/08/18 08:22:48;;;;;;;0.20;0.10;;;;;;;;;;6180096;23;20009;-92
2022/08/18 08:25:41;;;;;;;0.20;0.10;;;;;;;;;;6180254;22;20027;-87
2022/08/18 08:28:26;;;;;;;0.20;0.10;;;;;;;;;;6179266;23;20087;-89
2022/08/18 08:34:51;;;;;;;0.20;0.10;;;;;;;;;;6213274;23;20229;-89
2022/08/18 08:37:20;;;;;;;0.20;0.10;;;;;;;;;;6180415;23;20024;-86
2022/08/18 08:39:58;;;;;;;0.20;0.10;;;;;;;;;;6177561;23;20021;-88
2022/08/18 08:42:26;;;;;;;0.20;0.10;;;;;;;;;;6153139;23;20417;-90
2022/08/18 08:44:59;;;;;;;0.20;0.10;;;;;;;;;;6177726;23;20439;-90
2022/08/18 08:47:31;;;;;;;0.20;0.10;;;;;;;;;;6154577;23;20040;-92
2022/08/18 08:49:57;;;;;;;;;;;;;;;;;;6204806;23;20035;-90
2022/08/18 08:52:34;;;;;;;0.75;0.20;;;;;;;;;;6179039;22;19912;-89
2022/08/18 08:55:05;;;;;;;0.20;0.10;;;;;;;;;;6177266;22;20022;-87
2022/08/18 08:57:35;;;;;;;0.20;0.10;;;;;;;;;;6178080;23;20095;-90
2022/08/18 09:00:05;;;;;;;0.20;0.10;;;;;;;;;;6177544;23;20113;-89
2022/08/18 09:02:34;;;;;;;0.20;0.10;;;;;;;;;;6177775;23;20407;-87
2022/08/18 09:05:13;;;;;;;0.20;0.10;;;;;;;;;;6180052;23;20348;-89
2022/08/18 09:07:54;;;;;;;0.20;0.10;;;;;;;;;;6180934;23;20081;-87
2022/08/18 09:10:23;;;;;;;0.20;0.10;;;;;;;;;;6180130;23;20360;-89
2022/08/18 09:12:55;;;;;;;0.20;0.10;;;;;;;;;;6184845;23;20479;-92
2022/08/18 09:15:21;;;;;;;;;;;;;;;;;;6183492;23;20019;-88
2022/08/18 09:17:54;;;;;;;0.20;0.10;;;;;;;;;;6185873;23;19916;-87
2022/08/18 09:20:36;;;;;;;0.20;0.10;;;;;;;;;;6160953;23;20008;-88
2022/08/18 09:23:07;;;;;;;0.20;0.10;;;;;;;;;;6160006;23;20357;-87
2022/08/18 09:25:33;;;;;;;0.20;0.10;;;;;;;;;;6159023;23;20448;-87
2022/08/18 09:28:11;;;;;;;0.20;0.10;;;;;;;;;;6178871;23;20085;-90
2022/08/18 09:30:43;;;;;;;0.20;0.10;;;;;;;;;;6202945;23;20026;-89
2022/08/18 09:33:13;;;;;;;0.20;0.10;;;;;;;;;;6202585;23;20486;-89
2022/08/18 09:41:59;;;;;;;0.20;0.20;;;;;;;;;;6308922;22;20333;-87
2022/08/18 09:44:40;;;;;;;0.20;0.10;;;;;;;;;;6178461;23;20028;-86
2022/08/18 09:47:07;;;;;;;0.20;0.10;;;;;;;;;;6176528;23;20020;-85
2022/08/18 09:49:40;;;;;;;0.20;0.10;;;;;;;;;;6177328;23;20069;-85
2022/08/18 09:52:26;;;;;;;0.20;0.10;;;;;;;;;;6152505;23;20020;-84
2022/08/18 09:54:52;;;;;;;0.20;0.10;;;;;;;;;;6177466;22;20028;-88
2022/08/18 09:57:31;;;;;;;0.20;0.10;;;;;;;;;;6178074;23;20017;-87
2022/08/18 10:00:16;;;;;;;0.20;0.10;;;;;;;;;;6176580;23;20067;-84
2022/08/18 10:02:42;;;;;;;0.20;0.10;;;;;;;;;;6153477;23;20017;-87
2022/08/18 10:05:18;;;;;;;0.20;0.10;;;;;;;;;;6176787;23;20041;-85
2022/08/18 10:07:56;;;;;;;0.20;0.10;;;;;;;;;;6153524;22;20470;-83
2022/08/18 10:10:38;;;;;;;0.20;0.10;;;;;;;;;;6177408;23;20071;-87
2022/08/18 10:13:16;;;;;;;0.20;0.10;;;;;;;;;;6154675;23;20017;-90
2022/08/18 10:15:46;;;;;;;0.20;0.10;;;;;;;;;;6177750;23;20065;-83
2022/08/18 10:18:15;;;;;;;0.20;0.10;;;;;;;;;;6177856;23;20009;-84
2022/08/18 10:20:53;;;;;;;0.20;0.10;;;;;;;;;;6177044;23;20009;-87
2022/08/18 10:23:38;;;;;;;0.20;0.10;;;;;;;;;;6177868;23;20349;-84
2022/08/18 10:26:04;;;;;;;0.20;0.10;;;;;;;;;;6203452;23;20329;-85
2022/08/18 10:28:49;;;;;;;0.20;0.10;;;;;;;;;;6179526;23;20040;-87
2022/08/18 10:31:19;;;;;;;0.20;0.10;;;;;;;;;;6178579;23;20424;-87
2022/08/18 10:34:23;;;;;;;0.20;0.10;;;;;;;;;;6200978;22;20013;-88
2022/08/18 10:36:50;;;;;;;0.20;0.10;;;;;;;;;;6179713;23;20099;-86
2022/08/18 10:39:19;;;;;;;0.20;0.10;;;;;;;;;;6179106;23;20342;-83
2022/08/18 10:42:21;;;;;;;0.20;0.10;;;;;;;;;;6179971;23;20016;-84
2022/08/18 10:45:07;;;;;;;0.20;0.10;;;;;;;;;;6179272;23;20016;-86
2022/08/18 10:47:42;;;;;;;0.20;0.10;;;;;;;;;;6183423;23;20078;-84
2022/08/18 10:50:19;;;;;;;0.20;0.10;;;;;;;;;;6182739;23;20012;-84
2022/08/18 10:53:01;;;;;;;0.20;0.10;;;;;;;;;;6183420;23;20485;-84
2022/08/18 10:55:39;;;;;;;0.20;0.10;;;;;;;;;;6181073;23;20043;-85
2022/08/18 10:58:17;;;;;;;0.20;0.10;;;;;;;;;;6181214;23;21012;-86
2022/08/18 11:00:47;;;;;;;0.20;0.10;;;;;;;;;;6180463;23;20012;-87
2022/08/18 11:03:26;;;;;;;0.20;0.10;;;;;;;;;;6180328;23;20019;-86
2022/08/18 11:06:07;;;;;;;0.20;0.10;;;;;;;;;;6155621;23;20020;-89
2022/08/18 11:08:38;;;;;;;0.20;0.10;;;;;;;;;;6156127;23;20008;-81
2022/08/18 11:11:11;;;;;;;0.20;0.10;;;;;;;;;;6206708;23;20108;-88
2022/08/18 11:13:37;;;;;;;0.20;0.10;;;;;;;;;;6179780;23;20056;-85
2022/08/18 11:16:11;;;;;;;0.20;0.10;;;;;;;;;;6180077;23;20087;-83
2022/08/18 11:18:45;;;;;;;0.45;0.45;;;;;;;;;;6204199;23;20021;-86
2022/08/18 11:21:23;;;;;;;0.20;0.10;;;;;;;;;;6180179;23;20017;-84
2022/08/18 11:24:08;;;;;;;0.20;0.10;;;;;;;;;;6178477;23;20017;-82
2022/08/18 11:26:37;;;;;;;0.20;0.10;;;;;;;;;;6178801;23;20055;-85
2022/08/18 11:29:18;;;;;;;0.20;0.10;;;;;;;;;;6205642;23;20012;-87
2022/08/18 11:31:45;;;;;;;0.20;0.10;;;;;;;;;;6206123;23;20039;-82
2022/08/18 11:34:16;;;;;;;0.20;0.10;;;;;;;;;;6204982;23;20043;-84
2022/08/18 11:36:42;;;;;;;0.20;0.10;;;;;;;;;;6179849;23;20013;-87
2022/08/18 11:39:09;;;;;;;0.20;0.10;;;;;;;;;;6153926;23;20017;-83
2022/08/18 11:41:36;;;;;;;0.20;0.10;;;;;;;;;;6179117;23;20016;-86
2022/08/18 11:44:04;;;;;;;0.20;0.10;;;;;;;;;;6204136;23;20020;-83
2022/08/18 11:46:42;;;;;;;0.20;0.10;;;;;;;;;;6204937;23;20019;-85
2022/08/18 11:49:19;;;;;;;0.20;0.10;;;;;;;;;;6156462;22;20020;-86
2022/08/18 11:52:01;;;;;;;0.20;0.10;;;;;;;;;;6205867;23;20020;-83
2022/08/18 11:54:33;;;;;;;0.20;0.10;;;;;;;;;;6209421;23;20020;-84
2022/08/18 11:57:18;;;;;;;0.20;0.10;;;;;;;;;;6208060;23;20354;-85
2022/08/18 11:59:44;;;;;;;0.20;0.10;;;;;;;;;;6206580;23;20016;-86
2022/08/18 12:02:17;;;;;;;0.20;0.10;;;;;;;;;;6285407;22;20016;-85
2022/08/18 12:04:43;;;;;;;0.20;0.10;;;;;;;;;;6231951;23;20507;-85
2022/08/18 12:07:13;;;;;;;0.20;0.10;;;;;;;;;;6181927;23;20360;-86
2022/08/18 12:09:42;;;;;;;0.20;0.10;;;;;;;;;;6180811;23;20016;-85
2022/08/18 12:12:23;;;;;;;0.20;0.10;;;;;;;;;;6232035;23;20047;-83
2022/08/18 12:14:52;;;;;;;0.20;0.10;;;;;;;;;;6182914;23;20024;-84
2022/08/18 12:17:21;;;;;;;0.20;0.10;;;;;;;;;;6232330;23;20013;-85
2022/08/18 12:19:51;;;;;;;0.20;0.10;;;;;;;;;;6181823;23;20020;-86
2022/08/18 12:22:39;;;;;;;0.20;0.10;;;;;;;;;;6183194;23;20112;-85
2022/08/18 12:25:06;;;;;;;0.20;0.10;;;;;;;;;;6232020;23;20020;-86
2022/08/18 12:27:33;;;;;;;0.20;0.10;;;;;;;;;;6181543;23;20016;-86
2022/08/18 12:30:00;;;;;;;0.20;0.10;;;;;;;;;;6232185;23;20012;-85
2022/08/18 12:32:28;;;;;;;0.20;0.10;;;;;;;;;;6232774;23;20017;-88
2022/08/18 12:34:54;;;;;;;0.20;0.10;;;;;;;;;;6231963;23;20364;-87
2022/08/18 12:37:21;;;;;;;0.20;0.10;;;;;;;;;;6182201;23;20012;-85
2022/08/18 12:39:47;;;;;;;0.20;0.10;;;;;;;;;;6181745;23;20095;-86
2022/08/18 12:42:14;;;;;;;0.20;0.10;;;;;;;;;;6181590;23;20016;-85
2022/08/18 12:44:43;;;;;;;0.20;0.10;;;;;;;;;;6230981;23;20101;-84
2022/08/18 12:47:14;;;;;;;0.20;0.10;;;;;;;;;;6287901;22;20363;-86
2022/08/18 12:49:40;;;;;;;0.20;0.10;;;;;;;;;;6180711;23;20054;-84
2022/08/18 12:52:06;;;;;;;0.20;0.10;;;;;;;;;;6287715;22;20016;-85
2022/08/18 12:54:46;;;;;;;0.20;0.10;;;;;;;;;;6210439;23;20016;-84
2022/08/18 12:57:23;;;;;;;0.20;0.10;;;;;;;;;;6183073;23;20023;-87
2022/08/18 12:59:49;;;;;;;0.20;0.10;;;;;;;;;;6231822;23;20421;-86
2022/08/18 13:02:15;;;;;;;0.20;0.10;;;;;;;;;;6181318;23;20053;-87
2022/08/18 13:04:42;;;;;;;0.20;0.10;;;;;;;;;;6181389;23;20028;-86
2022/08/18 13:07:10;;;;;;;0.20;0.10;;;;;;;;;;6231029;23;20501;-85
2022/08/18 13:09:37;;;;;;;0.20;0.10;;;;;;;;;;6181421;23;20012;-88
2022/08/18 13:12:05;;;;;;;0.20;0.10;;;;;;;;;;6181278;23;20012;-85
2022/08/18 13:14:31;;;;;;;0.20;0.10;;;;;;;;;;6286161;22;20114;-86
2022/08/18 13:16:57;;;;;;;0.20;0.10;;;;;;;;;;6180820;23;20016;-85
2022/08/18 13:19:23;;;;;;;0.20;0.10;;;;;;;;;;6182792;22;20016;-84
2022/08/18 13:21:49;;;;;;;0.20;0.10;;;;;;;;;;6181984;23;20027;-88
2022/08/18 13:24:15;;;;;;;0.20;0.10;;;;;;;;;;6312573;22;20024;-87
2022/08/18 13:26:43;;;;;;;0.20;0.10;;;;;;;;;;6286940;22;20012;-84
2022/08/18 13:29:09;;;;;;;0.20;0.10;;;;;;;;;;6231271;23;20012;-85
2022/08/18 13:31:36;;;;;;;0.20;0.10;;;;;;;;;;6181417;23;20073;-83
2022/08/18 13:34:03;;;;;;;0.20;0.10;;;;;;;;;;6181463;23;20028;-84
2022/08/18 13:36:45;;;;;;;0.20;0.10;;;;;;;;;;6180912;23;20016;-84
2022/08/18 13:39:12;;;;;;;0.20;0.10;;;;;;;;;;6184607;23;20034;-84
2022/08/18 13:41:41;;;;;;;0.20;0.10;;;;;;;;;;6181557;23;20016;-85
2022/08/18 13:44:07;;;;;;;0.20;0.10;;;;;;;;;;6182172;23;20091;-86
2022/08/18 13:46:33;;;;;;;0.20;0.10;;;;;;;;;;6230739;23;20019;-85
2022/08/18 13:49:01;;;;;;;0.20;0.10;;;;;;;;;;6286182;22;20095;-82
2022/08/18 13:51:28;;;;;;;0.20;0.10;;;;;;;;;;6181035;23;20099;-85
2022/08/18 13:53:54;;;;;;;0.20;0.10;;;;;;;;;;6182416;22;20019;-84
2022/08/18 13:56:23;;;;;;;0.20;0.10;;;;;;;;;;6181006;23;20012;-83
2022/08/18 13:58:49;;;;;;;0.20;0.10;;;;;;;;;;6284856;22;20016;-85
2022/08/18 14:01:15;;;;;;;0.20;0.13;;;;;;;;;;6181294;23;20022;-85
2022/08/18 14:03:41;;;;;;;0.20;0.10;;;;;;;;;;6205763;23;20090;-86
2022/08/18 14:06:08;;;;;;;0.20;0.10;;;;;;;;;;6181379;23;20061;-84
2022/08/18 14:08:34;;;;;;;0.20;0.10;;;;;;;;;;6207292;23;20051;-85
2022/08/18 14:11:05;;;;;;;0.20;0.10;;;;;;;;;;6180909;23;20020;-84
2022/08/18 14:13:31;;;;;;;0.20;0.10;;;;;;;;;;6181089;23;20616;-84
2022/08/18 14:15:58;;;;;;;0.20;0.10;;;;;;;;;;6181342;23;20020;-83
2022/08/18 14:18:25;;;;;;;0.20;0.10;;;;;;;;;;6181707;23;20661;-85
2022/08/18 14:29:05;;;;;;;0.20;0.10;;;;;;;;;;6208069;23;20024;-87
2022/08/18 14:31:32;;;;;;;0.20;0.10;;;;;;;;;;6231347;23;20445;-84
2022/08/18 14:33:58;;;;;;;0.20;0.10;;;;;;;;;;6181721;23;20106;-84
2022/08/18 14:36:25;;;;;;;0.20;0.10;;;;;;;;;;6231146;23;20329;-84
2022/08/18 14:38:51;;;;;;;0.20;0.10;;;;;;;;;;6287366;22;20013;-85
2022/08/18 14:41:20;;;;;;;0.20;0.10;;;;;;;;;;6230256;23;20087;-85
2022/08/18 14:43:46;;;;;;;0.20;0.10;;;;;;;;;;6230592;23;20354;-83
2022/08/18 14:46:12;;;;;;;0.20;0.10;;;;;;;;;;6231606;23;20016;-85
2022/08/18 14:48:40;;;;;;;0.20;0.10;;;;;;;;;;6180998;23;20012;-85
2022/08/18 14:51:07;;;;;;;0.20;0.10;;;;;;;;;;6180941;23;20352;-85
2022/08/18 14:53:35;;;;;;;0.20;0.10;;;;;;;;;;6231636;23;20020;-86
2022/08/18 14:56:19;;;;;;;0.20;0.10;;;;;;;;;;6180900;23;20091;-84
2022/08/18 14:58:46;;;;;;;0.20;0.10;;;;;;;;;;6232223;23;20415;-83
2022/08/18 15:01:12;;;;;;;0.20;0.10;;;;;;;;;;6232738;23;20047;-84
2022/08/18 15:03:39;;;;;;;0.20;0.10;;;;;;;;;;6286213;22;20021;-85
2022/08/18 15:06:06;;;;;;;0.20;0.17;;;;;;;;;;6231183;23;20008;-84
2022/08/18 15:08:36;;;;;;;0.20;0.10;;;;;;;;;;6178033;23;20016;-86
2022/08/18 15:11:04;;;;;;;0.20;0.10;;;;;;;;;;6180123;23;20069;-83
2022/08/18 15:13:31;;;;;;;0.20;0.10;;;;;;;;;;6182015;23;20402;-84
2022/08/18 15:15:57;;;;;;;0.20;0.10;;;;;;;;;;6231880;23;20077;-84
2022/08/18 15:18:23;;;;;;;0.20;0.10;;;;;;;;;;6181431;23;20012;-84
2022/08/18 15:26:24;;;;;;;0.20;0.10;;;;;;;;;;6209770;23;20020;-84
2022/08/18 15:28:51;;;;;;;0.20;0.10;;;;;;;;;;6181429;23;20012;-85
2022/08/18 15:31:17;;;;;;;0.20;0.10;;;;;;;;;;6231553;23;20020;-85
2022/08/18 15:33:43;;;;;;;0.20;0.10;;;;;;;;;;6207213;23;20075;-86
2022/08/18 15:36:09;;;;;;;0.20;0.10;;;;;;;;;;6181628;23;20020;-86
2022/08/18 15:38:35;;;;;;;0.20;0.10;;;;;;;;;;6182842;23;20061;-85
2022/08/18 15:41:02;;;;;;;0.20;0.10;;;;;;;;;;6287493;22;20012;-84